SCDA

Diego Aracena International Airport

Airport
ICAO code
SCDA
IATA Code
IQQ
Summary
ICAO Region
CARSAM
ICAO Territory
Location

Chucumata, Tarapaca

Serving
Iquique
Elevation
155 ft
Coordinates
20° 32' 7" S , 70° 10' 53" W
KCC
Cfb
Metar
Observation
SCDA 131600Z 25009KT 220V280 9999 FEW029 16/08 Q1019
Station
Iquique / Diego Arac
Date/Time
2022-08-13 16:00:00
Wind direction
250°
Wind speed
09 kts
Lowest cloud amount
few clouds
Temperature
16°C
Dew point
8°C
Humidity
59%
QNH
1019 hPa
Weather condition
n/a

International airport serving Iquique, Tarapaca region, Chile. The airport is 48 km south of the city. The runway is shared with the Los Condores Air Base.

Climatology

Temperate oceanic climate (Köppen climate classification Cfb)

Runways

Designator Length Width Surface Rops
1/19 3350 45 ASP No/No

Airport map

Aerial View

SKYbrary Partners:

Safety knowledge contributed by: